WI83 weather

St Mary's Kewaunee Area Memorial Hospital Heliport
Kewaunee, Wisconsin, United States

Public forecast

Using degrees Fahrenheit for public forecast. Weather courtesy of forecast.io.

METAR (pilot weather report)

Closest report is Manitowoc County Airport, 20.6 nm (38.2 km) SSW. Retrieved 2019/07/21 21:56 UTC (57 minutes ago):

KMTW 212156Z AUTO 07008KT 10SM CLR 23/17 A3001 RMK AO2 SLP158 T02280167

TAF (pilot weather forecast)

Closest forecast is Manitowoc County Airport, 20.6 nm (38.2 km) SSW. Retrieved 2019/07/21 18:22 UTC (5 hours ago):

TAF KMTW 211720Z 2118/2218 05007KT P6SM SCT045 FM220100 03005KT P6SM BKN100 FM221000 35007KT P6SM SCT100